sensor_id;sensor_type;location;lat;lon;timestamp;P1;durP1;ratioP1;P2;durP2;ratioP2
13034;SDS011;6584;48.022;11.810;2022-08-03T00:05:06;3.38;;;1.65;;
13034;SDS011;6584;48.022;11.810;2022-08-03T00:07:32;1.80;;;1.70;;
13034;SDS011;6584;48.022;11.810;2022-08-03T00:10:01;1.90;;;1.70;;
13034;SDS011;6584;48.022;11.810;2022-08-03T00:12:26;2.33;;;1.60;;
13034;SDS011;6584;48.022;11.810;2022-08-03T00:14:52;1.70;;;1.60;;
13034;SDS011;6584;48.022;11.810;2022-08-03T00:17:17;1.70;;;1.60;;
13034;SDS011;6584;48.022;11.810;2022-08-03T00:19:43;1.60;;;1.50;;
13034;SDS011;6584;48.022;11.810;2022-08-03T00:22:08;1.60;;;1.45;;
13034;SDS011;6584;48.022;11.810;2022-08-03T00:24:34;1.77;;;1.48;;
13034;SDS011;6584;48.022;11.810;2022-08-03T00:27:00;2.25;;;1.55;;
13034;SDS011;6584;48.022;11.810;2022-08-03T00:29:25;1.70;;;1.60;;
13034;SDS011;6584;48.022;11.810;2022-08-03T00:31:51;3.90;;;1.95;;
13034;SDS011;6584;48.022;11.810;2022-08-03T00:34:16;2.58;;;1.60;;
13034;SDS011;6584;48.022;11.810;2022-08-03T00:36:42;1.60;;;1.50;;
13034;SDS011;6584;48.022;11.810;2022-08-03T00:39:08;2.75;;;1.50;;
13034;SDS011;6584;48.022;11.810;2022-08-03T00:41:33;1.83;;;1.73;;
13034;SDS011;6584;48.022;11.810;2022-08-03T00:43:59;1.75;;;1.65;;
13034;SDS011;6584;48.022;11.810;2022-08-03T00:46:24;2.95;;;1.50;;
13034;SDS011;6584;48.022;11.810;2022-08-03T00:48:50;1.85;;;1.67;;
13034;SDS011;6584;48.022;11.810;2022-08-03T00:51:17;1.58;;;1.48;;
13034;SDS011;6584;48.022;11.810;2022-08-03T00:53:43;1.63;;;1.52;;
13034;SDS011;6584;48.022;11.810;2022-08-03T00:56:11;2.05;;;1.85;;
13034;SDS011;6584;48.022;11.810;2022-08-03T00:58:38;1.80;;;1.65;;
13034;SDS011;6584;48.022;11.810;2022-08-03T01:01:04;2.17;;;1.60;;
13034;SDS011;6584;48.022;11.810;2022-08-03T01:03:31;2.13;;;1.65;;
13034;SDS011;6584;48.022;11.810;2022-08-03T01:11:23;1.80;;;1.70;;
13034;SDS011;6584;48.022;11.810;2022-08-03T01:14:14;2.05;;;1.75;;
13034;SDS011;6584;48.022;11.810;2022-08-03T01:19:30;3.95;;;1.90;;
13034;SDS011;6584;48.022;11.810;2022-08-03T01:22:07;4.50;;;1.90;;
13034;SDS011;6584;48.022;11.810;2022-08-03T01:25:02;2.35;;;1.80;;
13034;SDS011;6584;48.022;11.810;2022-08-03T01:30:20;2.05;;;1.65;;
13034;SDS011;6584;48.022;11.810;2022-08-03T01:33:08;1.70;;;1.60;;
13034;SDS011;6584;48.022;11.810;2022-08-03T01:38:17;2.17;;;1.80;;
13034;SDS011;6584;48.022;11.810;2022-08-03T01:40:49;2.20;;;1.73;;
13034;SDS011;6584;48.022;11.810;2022-08-03T01:43:18;1.90;;;1.80;;
13034;SDS011;6584;48.022;11.810;2022-08-03T01:45:49;4.03;;;1.63;;
13034;SDS011;6584;48.022;11.810;2022-08-03T01:48:16;2.35;;;1.50;;
13034;SDS011;6584;48.022;11.810;2022-08-03T01:50:43;2.65;;;1.58;;
13034;SDS011;6584;48.022;11.810;2022-08-03T01:53:12;1.90;;;1.80;;
13034;SDS011;6584;48.022;11.810;2022-08-03T01:55:41;1.50;;;1.40;;
13034;SDS011;6584;48.022;11.810;2022-08-03T01:58:09;1.50;;;1.40;;
13034;SDS011;6584;48.022;11.810;2022-08-03T02:00:37;1.70;;;1.58;;
13034;SDS011;6584;48.022;11.810;2022-08-03T02:03:05;1.77;;;1.60;;
13034;SDS011;6584;48.022;11.810;2022-08-03T02:05:32;1.60;;;1.50;;
13034;SDS011;6584;48.022;11.810;2022-08-03T02:07:59;1.58;;;1.45;;
13034;SDS011;6584;48.022;11.810;2022-08-03T02:10:27;2.05;;;1.48;;
13034;SDS011;6584;48.022;11.810;2022-08-03T02:12:56;2.03;;;1.50;;
13034;SDS011;6584;48.022;11.810;2022-08-03T02:15:25;2.70;;;2.03;;
13034;SDS011;6584;48.022;11.810;2022-08-03T02:17:54;1.63;;;1.40;;
13034;SDS011;6584;48.022;11.810;2022-08-03T02:20:21;1.58;;;1.42;;
13034;SDS011;6584;48.022;11.810;2022-08-03T02:22:47;1.60;;;1.50;;
13034;SDS011;6584;48.022;11.810;2022-08-03T02:25:14;1.92;;;1.58;;
13034;SDS011;6584;48.022;11.810;2022-08-03T02:27:57;3.13;;;1.40;;
13034;SDS011;6584;48.022;11.810;2022-08-03T02:30:30;3.85;;;1.55;;
13034;SDS011;6584;48.022;11.810;2022-08-03T02:33:02;1.60;;;1.50;;
13034;SDS011;6584;48.022;11.810;2022-08-03T02:35:29;1.60;;;1.33;;
13034;SDS011;6584;48.022;11.810;2022-08-03T02:38:00;2.10;;;1.50;;
13034;SDS011;6584;48.022;11.810;2022-08-03T02:40:28;1.88;;;1.40;;
13034;SDS011;6584;48.022;11.810;2022-08-03T02:42:56;1.50;;;1.40;;
13034;SDS011;6584;48.022;11.810;2022-08-03T02:45:26;1.70;;;1.45;;
13034;SDS011;6584;48.022;11.810;2022-08-03T02:47:54;2.10;;;1.50;;
13034;SDS011;6584;48.022;11.810;2022-08-03T02:50:23;1.50;;;1.40;;
13034;SDS011;6584;48.022;11.810;2022-08-03T02:52:51;1.98;;;1.33;;
13034;SDS011;6584;48.022;11.810;2022-08-03T02:55:18;1.40;;;1.30;;
13034;SDS011;6584;48.022;11.810;2022-08-03T02:57:45;1.50;;;1.40;;
13034;SDS011;6584;48.022;11.810;2022-08-03T03:00:12;1.60;;;1.50;;
13034;SDS011;6584;48.022;11.810;2022-08-03T03:02:39;1.90;;;1.80;;
13034;SDS011;6584;48.022;11.810;2022-08-03T03:05:06;1.48;;;1.38;;
13034;SDS011;6584;48.022;11.810;2022-08-03T03:07:34;1.83;;;1.50;;
13034;SDS011;6584;48.022;11.810;2022-08-03T03:10:01;2.38;;;1.50;;
13034;SDS011;6584;48.022;11.810;2022-08-03T03:12:28;1.63;;;1.52;;
13034;SDS011;6584;48.022;11.810;2022-08-03T03:14:56;1.98;;;1.63;;
13034;SDS011;6584;48.022;11.810;2022-08-03T03:17:21;2.05;;;1.60;;
13034;SDS011;6584;48.022;11.810;2022-08-03T03:19:48;2.08;;;1.80;;
13034;SDS011;6584;48.022;11.810;2022-08-03T03:22:15;1.70;;;1.60;;
13034;SDS011;6584;48.022;11.810;2022-08-03T03:24:42;1.73;;;1.63;;
13034;SDS011;6584;48.022;11.810;2022-08-03T03:27:08;1.77;;;1.60;;
13034;SDS011;6584;48.022;11.810;2022-08-03T03:29:34;2.55;;;1.70;;
13034;SDS011;6584;48.022;11.810;2022-08-03T03:32:01;1.83;;;1.73;;
13034;SDS011;6584;48.022;11.810;2022-08-03T03:34:27;2.67;;;1.70;;
13034;SDS011;6584;48.022;11.810;2022-08-03T03:36:53;1.85;;;1.70;;
13034;SDS011;6584;48.022;11.810;2022-08-03T03:39:19;2.35;;;1.95;;
13034;SDS011;6584;48.022;11.810;2022-08-03T03:41:44;3.38;;;1.75;;
13034;SDS011;6584;48.022;11.810;2022-08-03T03:44:10;2.35;;;1.85;;
13034;SDS011;6584;48.022;11.810;2022-08-03T03:46:37;2.28;;;1.70;;
13034;SDS011;6584;48.022;11.810;2022-08-03T03:49:04;1.95;;;1.65;;
13034;SDS011;6584;48.022;11.810;2022-08-03T03:51:31;1.73;;;1.63;;
13034;SDS011;6584;48.022;11.810;2022-08-03T03:53:57;2.08;;;1.50;;
13034;SDS011;6584;48.022;11.810;2022-08-03T03:56:23;1.52;;;1.40;;
13034;SDS011;6584;48.022;11.810;2022-08-03T03:58:49;1.80;;;1.70;;
13034;SDS011;6584;48.022;11.810;2022-08-03T04:01:15;3.22;;;1.92;;
13034;SDS011;6584;48.022;11.810;2022-08-03T04:03:41;1.75;;;1.65;;
13034;SDS011;6584;48.022;11.810;2022-08-03T04:06:06;1.75;;;1.65;;
13034;SDS011;6584;48.022;11.810;2022-08-03T04:08:51;2.38;;;1.90;;
13034;SDS011;6584;48.022;11.810;2022-08-03T04:11:52;3.13;;;1.60;;
13034;SDS011;6584;48.022;11.810;2022-08-03T04:14:25;1.63;;;1.52;;
13034;SDS011;6584;48.022;11.810;2022-08-03T04:16:58;2.97;;;1.70;;
13034;SDS011;6584;48.022;11.810;2022-08-03T04:19:39;1.88;;;1.50;;
13034;SDS011;6584;48.022;11.810;2022-08-03T04:22:09;2.72;;;1.58;;
13034;SDS011;6584;48.022;11.810;2022-08-03T04:24:43;1.70;;;1.60;;
13034;SDS011;6584;48.022;11.810;2022-08-03T04:27:14;1.85;;;1.50;;
13034;SDS011;6584;48.022;11.810;2022-08-03T04:29:44;1.65;;;1.55;;
13034;SDS011;6584;48.022;11.810;2022-08-03T04:32:11;2.80;;;1.60;;
13034;SDS011;6584;48.022;11.810;2022-08-03T04:34:37;1.63;;;1.50;;
13034;SDS011;6584;48.022;11.810;2022-08-03T04:37:04;3.38;;;1.75;;
13034;SDS011;6584;48.022;11.810;2022-08-03T04:39:35;1.60;;;1.50;;
13034;SDS011;6584;48.022;11.810;2022-08-03T04:42:03;1.70;;;1.60;;
13034;SDS011;6584;48.022;11.810;2022-08-03T04:44:34;1.90;;;1.70;;
13034;SDS011;6584;48.022;11.810;2022-08-03T04:47:02;2.15;;;1.80;;
13034;SDS011;6584;48.022;11.810;2022-08-03T04:49:28;1.80;;;1.70;;
13034;SDS011;6584;48.022;11.810;2022-08-03T04:51:54;1.70;;;1.60;;
13034;SDS011;6584;48.022;11.810;2022-08-03T04:54:20;2.08;;;1.50;;
13034;SDS011;6584;48.022;11.810;2022-08-03T04:56:46;1.45;;;1.35;;
13034;SDS011;6584;48.022;11.810;2022-08-03T04:59:12;1.65;;;1.55;;
13034;SDS011;6584;48.022;11.810;2022-08-03T05:01:38;1.92;;;1.60;;
13034;SDS011;6584;48.022;11.810;2022-08-03T05:04:05;1.60;;;1.50;;
13034;SDS011;6584;48.022;11.810;2022-08-03T05:06:31;2.00;;;1.80;;
13034;SDS011;6584;48.022;11.810;2022-08-03T05:08:57;5.93;;;2.08;;
13034;SDS011;6584;48.022;11.810;2022-08-03T05:11:22;3.90;;;2.10;;
13034;SDS011;6584;48.022;11.810;2022-08-03T05:13:48;3.33;;;2.00;;
13034;SDS011;6584;48.022;11.810;2022-08-03T05:16:13;4.05;;;1.80;;
13034;SDS011;6584;48.022;11.810;2022-08-03T05:18:40;3.15;;;1.80;;
13034;SDS011;6584;48.022;11.810;2022-08-03T05:21:06;2.00;;;1.80;;
13034;SDS011;6584;48.022;11.810;2022-08-03T05:23:33;3.78;;;1.90;;
13034;SDS011;6584;48.022;11.810;2022-08-03T05:25:58;3.03;;;1.70;;
13034;SDS011;6584;48.022;11.810;2022-08-03T05:28:24;2.97;;;1.90;;
13034;SDS011;6584;48.022;11.810;2022-08-03T05:30:49;2.35;;;1.80;;
13034;SDS011;6584;48.022;11.810;2022-08-03T05:33:15;2.05;;;1.80;;
13034;SDS011;6584;48.022;11.810;2022-08-03T05:35:41;7.18;;;2.05;;
13034;SDS011;6584;48.022;11.810;2022-08-03T05:38:06;3.97;;;2.08;;
13034;SDS011;6584;48.022;11.810;2022-08-03T05:40:32;4.80;;;2.25;;
13034;SDS011;6584;48.022;11.810;2022-08-03T05:42:58;4.78;;;2.30;;
13034;SDS011;6584;48.022;11.810;2022-08-03T05:45:24;2.60;;;2.15;;
13034;SDS011;6584;48.022;11.810;2022-08-03T05:47:50;2.65;;;2.10;;
13034;SDS011;6584;48.022;11.810;2022-08-03T05:50:16;4.57;;;2.15;;
13034;SDS011;6584;48.022;11.810;2022-08-03T05:52:43;4.63;;;2.17;;
13034;SDS011;6584;48.022;11.810;2022-08-03T05:55:09;6.95;;;2.42;;
13034;SDS011;6584;48.022;11.810;2022-08-03T05:57:35;10.75;;;2.65;;
13034;SDS011;6584;48.022;11.810;2022-08-03T06:00:05;11.20;;;2.90;;
13034;SDS011;6584;48.022;11.810;2022-08-03T06:02:32;5.90;;;2.17;;
13034;SDS011;6584;48.022;11.810;2022-08-03T06:04:57;5.25;;;2.25;;
13034;SDS011;6584;48.022;11.810;2022-08-03T06:07:23;3.47;;;2.20;;
13034;SDS011;6584;48.022;11.810;2022-08-03T06:09:49;4.40;;;2.38;;
13034;SDS011;6584;48.022;11.810;2022-08-03T06:12:14;4.10;;;2.10;;
13034;SDS011;6584;48.022;11.810;2022-08-03T06:14:40;4.45;;;2.50;;
13034;SDS011;6584;48.022;11.810;2022-08-03T06:17:05;10.85;;;3.63;;
13034;SDS011;6584;48.022;11.810;2022-08-03T06:19:31;11.63;;;3.85;;
13034;SDS011;6584;48.022;11.810;2022-08-03T06:21:56;5.00;;;2.40;;
13034;SDS011;6584;48.022;11.810;2022-08-03T06:24:22;7.55;;;3.00;;
13034;SDS011;6584;48.022;11.810;2022-08-03T06:26:47;8.73;;;2.70;;
13034;SDS011;6584;48.022;11.810;2022-08-03T06:29:13;4.18;;;2.10;;
13034;SDS011;6584;48.022;11.810;2022-08-03T06:31:38;1.80;;;1.70;;
13034;SDS011;6584;48.022;11.810;2022-08-03T06:34:04;1.80;;;1.70;;
13034;SDS011;6584;48.022;11.810;2022-08-03T06:36:30;2.58;;;2.03;;
13034;SDS011;6584;48.022;11.810;2022-08-03T06:38:56;2.15;;;1.90;;
13034;SDS011;6584;48.022;11.810;2022-08-03T06:41:23;1.98;;;1.88;;
13034;SDS011;6584;48.022;11.810;2022-08-03T06:43:49;1.77;;;1.67;;
13034;SDS011;6584;48.022;11.810;2022-08-03T06:46:14;2.30;;;1.80;;
13034;SDS011;6584;48.022;11.810;2022-08-03T06:48:40;3.13;;;1.85;;
13034;SDS011;6584;48.022;11.810;2022-08-03T06:51:06;2.33;;;2.00;;
13034;SDS011;6584;48.022;11.810;2022-08-03T06:53:31;3.08;;;1.90;;
13034;SDS011;6584;48.022;11.810;2022-08-03T06:55:57;2.90;;;1.80;;
13034;SDS011;6584;48.022;11.810;2022-08-03T06:58:22;1.80;;;1.70;;
13034;SDS011;6584;48.022;11.810;2022-08-03T07:00:48;1.88;;;1.77;;
13034;SDS011;6584;48.022;11.810;2022-08-03T07:03:14;1.73;;;1.63;;
13034;SDS011;6584;48.022;11.810;2022-08-03T07:05:40;3.90;;;1.90;;
13034;SDS011;6584;48.022;11.810;2022-08-03T07:08:07;2.75;;;1.77;;
13034;SDS011;6584;48.022;11.810;2022-08-03T07:10:33;2.00;;;1.90;;
13034;SDS011;6584;48.022;11.810;2022-08-03T07:12:58;2.95;;;2.00;;
13034;SDS011;6584;48.022;11.810;2022-08-03T07:15:24;2.03;;;1.80;;
13034;SDS011;6584;48.022;11.810;2022-08-03T07:17:49;2.50;;;1.92;;
13034;SDS011;6584;48.022;11.810;2022-08-03T07:20:15;2.35;;;1.92;;
13034;SDS011;6584;48.022;11.810;2022-08-03T07:22:42;1.75;;;1.65;;
13034;SDS011;6584;48.022;11.810;2022-08-03T07:25:08;2.05;;;1.75;;
13034;SDS011;6584;48.022;11.810;2022-08-03T07:27:34;2.03;;;1.83;;
13034;SDS011;6584;48.022;11.810;2022-08-03T07:29:59;3.65;;;2.00;;
13034;SDS011;6584;48.022;11.810;2022-08-03T07:32:26;2.08;;;1.92;;
13034;SDS011;6584;48.022;11.810;2022-08-03T07:34:54;2.10;;;1.90;;
13034;SDS011;6584;48.022;11.810;2022-08-03T07:37:20;2.15;;;1.90;;
13034;SDS011;6584;48.022;11.810;2022-08-03T07:39:46;2.63;;;1.90;;
13034;SDS011;6584;48.022;11.810;2022-08-03T07:42:11;2.75;;;1.98;;
13034;SDS011;6584;48.022;11.810;2022-08-03T07:44:37;2.80;;;2.10;;
13034;SDS011;6584;48.022;11.810;2022-08-03T07:47:03;3.70;;;2.03;;
13034;SDS011;6584;48.022;11.810;2022-08-03T07:49:29;2.65;;;2.03;;
13034;SDS011;6584;48.022;11.810;2022-08-03T07:51:54;4.25;;;2.20;;
13034;SDS011;6584;48.022;11.810;2022-08-03T07:54:38;5.35;;;1.80;;
13034;SDS011;6584;48.022;11.810;2022-08-03T07:57:04;2.08;;;1.90;;
13034;SDS011;6584;48.022;11.810;2022-08-03T07:59:30;2.45;;;2.08;;
13034;SDS011;6584;48.022;11.810;2022-08-03T08:01:55;5.38;;;2.03;;
13034;SDS011;6584;48.022;11.810;2022-08-03T08:04:21;1.90;;;1.75;;
13034;SDS011;6584;48.022;11.810;2022-08-03T08:06:46;2.08;;;1.88;;
13034;SDS011;6584;48.022;11.810;2022-08-03T08:09:12;2.15;;;1.90;;
13034;SDS011;6584;48.022;11.810;2022-08-03T08:11:38;2.33;;;1.90;;
13034;SDS011;6584;48.022;11.810;2022-08-03T08:14:04;2.42;;;2.22;;
13034;SDS011;6584;48.022;11.810;2022-08-03T08:16:31;4.43;;;2.60;;
13034;SDS011;6584;48.022;11.810;2022-08-03T08:18:57;2.30;;;2.13;;
13034;SDS011;6584;48.022;11.810;2022-08-03T08:21:22;2.50;;;2.03;;
13034;SDS011;6584;48.022;11.810;2022-08-03T08:23:48;1.88;;;1.70;;
13034;SDS011;6584;48.022;11.810;2022-08-03T08:26:13;1.90;;;1.80;;
13034;SDS011;6584;48.022;11.810;2022-08-03T08:28:39;2.10;;;1.90;;
13034;SDS011;6584;48.022;11.810;2022-08-03T08:31:05;2.17;;;1.98;;
13034;SDS011;6584;48.022;11.810;2022-08-03T08:33:31;2.45;;;1.70;;
13034;SDS011;6584;48.022;11.810;2022-08-03T08:35:58;2.00;;;1.80;;
13034;SDS011;6584;48.022;11.810;2022-08-03T08:38:24;2.20;;;2.00;;
13034;SDS011;6584;48.022;11.810;2022-08-03T08:40:50;1.90;;;1.80;;
13034;SDS011;6584;48.022;11.810;2022-08-03T08:43:19;2.95;;;2.13;;
13034;SDS011;6584;48.022;11.810;2022-08-03T08:45:45;2.72;;;2.00;;
13034;SDS011;6584;48.022;11.810;2022-08-03T08:48:13;2.00;;;1.90;;
13034;SDS011;6584;48.022;11.810;2022-08-03T08:50:42;3.92;;;2.20;;
13034;SDS011;6584;48.022;11.810;2022-08-03T08:53:08;2.03;;;1.88;;
13034;SDS011;6584;48.022;11.810;2022-08-03T08:55:36;3.88;;;2.13;;
13034;SDS011;6584;48.022;11.810;2022-08-03T08:58:04;2.35;;;1.73;;
13034;SDS011;6584;48.022;11.810;2022-08-03T09:00:30;2.33;;;2.03;;
13034;SDS011;6584;48.022;11.810;2022-08-03T09:02:56;3.55;;;1.85;;
13034;SDS011;6584;48.022;11.810;2022-08-03T09:05:22;2.72;;;2.00;;
13034;SDS011;6584;48.022;11.810;2022-08-03T09:07:48;2.13;;;1.92;;
13034;SDS011;6584;48.022;11.810;2022-08-03T09:10:15;5.25;;;2.08;;
13034;SDS011;6584;48.022;11.810;2022-08-03T09:12:52;2.70;;;1.85;;
13034;SDS011;6584;48.022;11.810;2022-08-03T09:15:19;2.35;;;1.83;;
13034;SDS011;6584;48.022;11.810;2022-08-03T09:18:03;2.78;;;1.80;;
13034;SDS011;6584;48.022;11.810;2022-08-03T09:20:30;2.05;;;1.95;;
13034;SDS011;6584;48.022;11.810;2022-08-03T09:22:58;2.25;;;1.92;;
13034;SDS011;6584;48.022;11.810;2022-08-03T09:25:32;3.58;;;1.92;;
13034;SDS011;6584;48.022;11.810;2022-08-03T09:28:03;2.03;;;1.83;;
13034;SDS011;6584;48.022;11.810;2022-08-03T09:30:30;3.15;;;1.85;;
13034;SDS011;6584;48.022;11.810;2022-08-03T09:33:03;2.95;;;1.73;;
13034;SDS011;6584;48.022;11.810;2022-08-03T09:35:30;2.80;;;1.90;;
13034;SDS011;6584;48.022;11.810;2022-08-03T09:38:09;1.90;;;1.70;;
13034;SDS011;6584;48.022;11.810;2022-08-03T09:40:40;3.05;;;1.90;;
13034;SDS011;6584;48.022;11.810;2022-08-03T09:43:06;2.70;;;1.88;;
13034;SDS011;6584;48.022;11.810;2022-08-03T09:45:33;2.30;;;2.10;;
13034;SDS011;6584;48.022;11.810;2022-08-03T09:50:52;2.08;;;1.88;;
13034;SDS011;6584;48.022;11.810;2022-08-03T09:53:20;3.63;;;1.90;;
13034;SDS011;6584;48.022;11.810;2022-08-03T09:55:53;2.42;;;2.00;;
13034;SDS011;6584;48.022;11.810;2022-08-03T09:58:22;2.35;;;1.90;;
13034;SDS011;6584;48.022;11.810;2022-08-03T10:03:24;1.88;;;1.63;;
13034;SDS011;6584;48.022;11.810;2022-08-03T10:05:51;1.88;;;1.75;;
13034;SDS011;6584;48.022;11.810;2022-08-03T10:08:17;2.03;;;1.80;;
13034;SDS011;6584;48.022;11.810;2022-08-03T10:10:47;2.17;;;1.95;;
13034;SDS011;6584;48.022;11.810;2022-08-03T10:13:15;1.98;;;1.80;;
13034;SDS011;6584;48.022;11.810;2022-08-03T10:15:42;3.25;;;1.85;;
13034;SDS011;6584;48.022;11.810;2022-08-03T10:18:08;1.80;;;1.70;;
13034;SDS011;6584;48.022;11.810;2022-08-03T10:20:40;1.80;;;1.70;;
13034;SDS011;6584;48.022;11.810;2022-08-03T10:23:09;1.90;;;1.80;;
13034;SDS011;6584;48.022;11.810;2022-08-03T10:25:36;1.67;;;1.58;;
13034;SDS011;6584;48.022;11.810;2022-08-03T10:28:03;1.90;;;1.65;;
13034;SDS011;6584;48.022;11.810;2022-08-03T10:30:31;3.10;;;1.98;;
13034;SDS011;6584;48.022;11.810;2022-08-03T10:33:01;1.80;;;1.70;;
13034;SDS011;6584;48.022;11.810;2022-08-03T10:35:45;2.17;;;1.90;;
13034;SDS011;6584;48.022;11.810;2022-08-03T10:38:21;2.85;;;1.80;;
13034;SDS011;6584;48.022;11.810;2022-08-03T10:40:52;2.10;;;1.70;;
13034;SDS011;6584;48.022;11.810;2022-08-03T10:43:23;1.90;;;1.52;;
13034;SDS011;6584;48.022;11.810;2022-08-03T10:45:52;2.45;;;1.70;;
13034;SDS011;6584;48.022;11.810;2022-08-03T10:48:19;1.80;;;1.70;;
13034;SDS011;6584;48.022;11.810;2022-08-03T10:50:45;2.00;;;1.80;;
13034;SDS011;6584;48.022;11.810;2022-08-03T10:53:13;2.92;;;1.63;;
13034;SDS011;6584;48.022;11.810;2022-08-03T10:55:40;2.75;;;1.80;;
13034;SDS011;6584;48.022;11.810;2022-08-03T11:01:09;1.90;;;1.80;;
13034;SDS011;6584;48.022;11.810;2022-08-03T11:04:13;2.67;;;1.80;;
13034;SDS011;6584;48.022;11.810;2022-08-03T11:06:40;1.60;;;1.50;;
13034;SDS011;6584;48.022;11.810;2022-08-03T11:11:34;3.63;;;1.90;;
13034;SDS011;6584;48.022;11.810;2022-08-03T11:14:07;1.98;;;1.85;;
13034;SDS011;6584;48.022;11.810;2022-08-03T11:16:34;4.82;;;1.98;;
13034;SDS011;6584;48.022;11.810;2022-08-03T11:19:02;3.28;;;1.83;;
13034;SDS011;6584;48.022;11.810;2022-08-03T11:32:50;2.72;;;1.55;;
13034;SDS011;6584;48.022;11.810;2022-08-03T11:35:15;3.65;;;1.73;;
13034;SDS011;6584;48.022;11.810;2022-08-03T11:43:52;1.85;;;1.75;;
13034;SDS011;6584;48.022;11.810;2022-08-03T11:51:27;1.80;;;1.70;;
13034;SDS011;6584;48.022;11.810;2022-08-03T11:53:56;2.75;;;1.88;;
13034;SDS011;6584;48.022;11.810;2022-08-03T11:56:23;3.30;;;1.90;;
13034;SDS011;6584;48.022;11.810;2022-08-03T11:58:50;1.80;;;1.65;;
13034;SDS011;6584;48.022;11.810;2022-08-03T12:01:18;1.85;;;1.75;;
13034;SDS011;6584;48.022;11.810;2022-08-03T12:03:45;1.80;;;1.70;;
13034;SDS011;6584;48.022;11.810;2022-08-03T12:06:11;1.70;;;1.60;;
13034;SDS011;6584;48.022;11.810;2022-08-03T12:08:39;1.77;;;1.67;;
13034;SDS011;6584;48.022;11.810;2022-08-03T12:11:07;1.77;;;1.67;;
13034;SDS011;6584;48.022;11.810;2022-08-03T12:16:07;4.07;;;1.60;;
13034;SDS011;6584;48.022;11.810;2022-08-03T12:18:33;1.70;;;1.60;;
13034;SDS011;6584;48.022;11.810;2022-08-03T12:21:06;1.65;;;1.55;;
13034;SDS011;6584;48.022;11.810;2022-08-03T12:23:33;2.13;;;1.52;;
13034;SDS011;6584;48.022;11.810;2022-08-03T12:26:00;1.80;;;1.70;;
13034;SDS011;6584;48.022;11.810;2022-08-03T12:28:30;1.70;;;1.60;;
13034;SDS011;6584;48.022;11.810;2022-08-03T12:30:59;2.20;;;1.60;;
13034;SDS011;6584;48.022;11.810;2022-08-03T12:33:27;1.77;;;1.67;;
13034;SDS011;6584;48.022;11.810;2022-08-03T12:38:35;1.80;;;1.70;;
13034;SDS011;6584;48.022;11.810;2022-08-03T12:41:05;1.95;;;1.67;;
13034;SDS011;6584;48.022;11.810;2022-08-03T12:43:32;1.75;;;1.65;;
13034;SDS011;6584;48.022;11.810;2022-08-03T12:46:06;1.65;;;1.55;;
13034;SDS011;6584;48.022;11.810;2022-08-03T12:48:35;2.13;;;1.92;;
13034;SDS011;6584;48.022;11.810;2022-08-03T12:51:08;2.05;;;1.63;;
13034;SDS011;6584;48.022;11.810;2022-08-03T12:53:35;1.80;;;1.70;;
13034;SDS011;6584;48.022;11.810;2022-08-03T12:56:01;1.50;;;1.40;;
13034;SDS011;6584;48.022;11.810;2022-08-03T12:58:31;4.32;;;1.85;;
13034;SDS011;6584;48.022;11.810;2022-08-03T13:00:58;2.00;;;1.80;;
13034;SDS011;6584;48.022;11.810;2022-08-03T13:03:24;2.13;;;1.77;;
13034;SDS011;6584;48.022;11.810;2022-08-03T13:05:49;2.22;;;1.90;;
13034;SDS011;6584;48.022;11.810;2022-08-03T13:08:19;1.80;;;1.70;;
13034;SDS011;6584;48.022;11.810;2022-08-03T13:10:45;2.00;;;1.80;;
13034;SDS011;6584;48.022;11.810;2022-08-03T13:13:12;2.75;;;1.77;;
13034;SDS011;6584;48.022;11.810;2022-08-03T13:15:39;2.58;;;1.60;;
13034;SDS011;6584;48.022;11.810;2022-08-03T13:18:04;2.25;;;1.52;;
13034;SDS011;6584;48.022;11.810;2022-08-03T13:20:30;1.75;;;1.65;;
13034;SDS011;6584;48.022;11.810;2022-08-03T13:22:56;2.97;;;1.60;;
13034;SDS011;6584;48.022;11.810;2022-08-03T13:25:21;5.13;;;1.88;;
13034;SDS011;6584;48.022;11.810;2022-08-03T13:27:47;1.85;;;1.70;;
13034;SDS011;6584;48.022;11.810;2022-08-03T13:30:13;1.70;;;1.60;;
13034;SDS011;6584;48.022;11.810;2022-08-03T13:32:39;4.32;;;1.80;;
13034;SDS011;6584;48.022;11.810;2022-08-03T13:35:05;1.75;;;1.65;;
13034;SDS011;6584;48.022;11.810;2022-08-03T13:37:32;2.38;;;1.70;;
13034;SDS011;6584;48.022;11.810;2022-08-03T13:39:58;1.63;;;1.52;;
13034;SDS011;6584;48.022;11.810;2022-08-03T13:42:25;2.90;;;1.70;;
13034;SDS011;6584;48.022;11.810;2022-08-03T13:44:52;2.47;;;1.40;;
13034;SDS011;6584;48.022;11.810;2022-08-03T13:47:18;1.70;;;1.60;;
13034;SDS011;6584;48.022;11.810;2022-08-03T13:49:43;1.95;;;1.75;;
13034;SDS011;6584;48.022;11.810;2022-08-03T13:52:09;2.55;;;1.50;;
13034;SDS011;6584;48.022;11.810;2022-08-03T13:54:35;1.95;;;1.80;;
13034;SDS011;6584;48.022;11.810;2022-08-03T13:57:00;1.60;;;1.50;;
13034;SDS011;6584;48.022;11.810;2022-08-03T13:59:26;2.08;;;1.73;;
13034;SDS011;6584;48.022;11.810;2022-08-03T14:01:51;1.80;;;1.70;;
13034;SDS011;6584;48.022;11.810;2022-08-03T14:04:18;1.60;;;1.50;;
13034;SDS011;6584;48.022;11.810;2022-08-03T14:06:44;2.08;;;1.50;;
13034;SDS011;6584;48.022;11.810;2022-08-03T14:09:10;1.90;;;1.70;;
13034;SDS011;6584;48.022;11.810;2022-08-03T14:11:42;1.85;;;1.63;;
13034;SDS011;6584;48.022;11.810;2022-08-03T14:14:08;1.70;;;1.60;;
13034;SDS011;6584;48.022;11.810;2022-08-03T14:16:34;1.70;;;1.60;;
13034;SDS011;6584;48.022;11.810;2022-08-03T14:19:00;1.70;;;1.60;;
13034;SDS011;6584;48.022;11.810;2022-08-03T14:21:26;1.98;;;1.80;;
13034;SDS011;6584;48.022;11.810;2022-08-03T14:23:51;1.73;;;1.60;;
13034;SDS011;6584;48.022;11.810;2022-08-03T14:26:17;2.22;;;1.60;;
13034;SDS011;6584;48.022;11.810;2022-08-03T14:28:44;2.53;;;1.70;;
13034;SDS011;6584;48.022;11.810;2022-08-03T14:31:10;3.38;;;1.60;;
13034;SDS011;6584;48.022;11.810;2022-08-03T14:33:35;1.60;;;1.50;;
13034;SDS011;6584;48.022;11.810;2022-08-03T14:36:01;2.13;;;1.60;;
13034;SDS011;6584;48.022;11.810;2022-08-03T14:38:27;1.75;;;1.65;;
13034;SDS011;6584;48.022;11.810;2022-08-03T14:40:52;1.80;;;1.70;;
13034;SDS011;6584;48.022;11.810;2022-08-03T14:43:18;1.60;;;1.50;;
13034;SDS011;6584;48.022;11.810;2022-08-03T14:45:50;2.67;;;1.65;;
13034;SDS011;6584;48.022;11.810;2022-08-03T14:48:20;2.60;;;1.60;;
13034;SDS011;6584;48.022;11.810;2022-08-03T14:53:15;4.63;;;1.63;;
13034;SDS011;6584;48.022;11.810;2022-08-03T14:55:41;1.95;;;1.80;;
13034;SDS011;6584;48.022;11.810;2022-08-03T14:58:07;1.63;;;1.52;;
13034;SDS011;6584;48.022;11.810;2022-08-03T15:00:33;1.70;;;1.60;;
13034;SDS011;6584;48.022;11.810;2022-08-03T15:02:59;1.80;;;1.70;;
13034;SDS011;6584;48.022;11.810;2022-08-03T15:05:25;2.55;;;1.60;;
13034;SDS011;6584;48.022;11.810;2022-08-03T15:07:51;1.80;;;1.70;;
13034;SDS011;6584;48.022;11.810;2022-08-03T15:10:17;1.80;;;1.70;;
13034;SDS011;6584;48.022;11.810;2022-08-03T15:12:43;1.63;;;1.52;;
13034;SDS011;6584;48.022;11.810;2022-08-03T15:15:09;1.63;;;1.52;;
13034;SDS011;6584;48.022;11.810;2022-08-03T15:17:34;3.22;;;1.60;;
13034;SDS011;6584;48.022;11.810;2022-08-03T15:20:00;3.15;;;1.60;;
13034;SDS011;6584;48.022;11.810;2022-08-03T15:22:25;3.25;;;1.80;;
13034;SDS011;6584;48.022;11.810;2022-08-03T15:24:51;1.90;;;1.58;;
13034;SDS011;6584;48.022;11.810;2022-08-03T15:27:17;1.73;;;1.50;;
13034;SDS011;6584;48.022;11.810;2022-08-03T15:29:43;2.15;;;1.70;;
13034;SDS011;6584;48.022;11.810;2022-08-03T15:32:08;2.05;;;1.83;;
13034;SDS011;6584;48.022;11.810;2022-08-03T15:34:34;2.75;;;1.70;;
13034;SDS011;6584;48.022;11.810;2022-08-03T15:36:59;2.03;;;1.90;;
13034;SDS011;6584;48.022;11.810;2022-08-03T15:39:25;2.50;;;1.73;;
13034;SDS011;6584;48.022;11.810;2022-08-03T15:41:50;1.70;;;1.60;;
13034;SDS011;6584;48.022;11.810;2022-08-03T15:44:19;1.60;;;1.50;;
13034;SDS011;6584;48.022;11.810;2022-08-03T15:46:45;3.28;;;1.70;;
13034;SDS011;6584;48.022;11.810;2022-08-03T15:49:11;1.83;;;1.50;;